CheckWX is a tool to help pilots better visualize weather data.  It is not intended as a substitute for an official pre-flight weather briefing.

19:30:56 UTC

KBCT METAR
Boca Raton Airport
Boca Raton, Florida, USA
Current

40 mins ago

KBCT 221851Z 13008G16KT 10SM SCT021 28/22 A3014
Observed
Feb-22 @ 18:51 UTC
Wind
  • 130° at 8 KTS
  • Gusting to KTS
Visibility
10 SM
Flight Rules
VFR
Cloud Levels
  • Scattered at 2,100' AGL
Temperature
28°C / 82°F
Dewpoint
22°C / 72°F
Humidity
70%
Altimeter
30.14" Hg
Pressure
1020.62 hPa
Previous

2 hours ago

KBCT 221753Z 09008KT 10SM SCT021 30/22 A3016
Observed
Feb-22 @ 17:53 UTC
Wind
  • 090° at 8 KTS
Visibility
10 SM
Flight Rules
VFR
Cloud Levels
  • Scattered at 2,100' AGL
Temperature
30°C / 86°F
Dewpoint
22°C / 72°F
Humidity
62%
Altimeter
30.16" Hg
Pressure
1021.32 hPa
Previous

3 hours ago

KBCT 221655Z 14010KT 10SM SCT025 30/22 A3019
Observed
Feb-22 @ 16:55 UTC
Wind
  • 140° at 10 KTS
Visibility
10 SM
Flight Rules
VFR
Cloud Levels
  • Scattered at 2,500' AGL
Temperature
30°C / 86°F
Dewpoint
22°C / 72°F
Humidity
62%
Altimeter
30.19" Hg
Pressure
1022.32 hPa